Time;durP1;ratioP1;P1;durP2;ratioP2;P2;SDS_P1;SDS_P2;PMS_P1;PMS_P2;Temp;Humidity;BMP_temperature;BMP_pressure;BME280_temperature;BME280_humidity;BME280_pressure;Samples;Min_cycle;Max_cycle;Signal;HPM_P1;HPM_P2
2023/11/15 00:01:37;;;;;;;6.63;1.52;;;;;;;10.27;64.92;98080.88;5013851;27;103328;-66
2023/11/15 00:04:08;;;;;;;3.10;1.23;;;;;;;10.29;65.26;98075.41;5016886;27;103287;-65
2023/11/15 00:06:36;;;;;;;3.42;1.60;;;;;;;10.27;64.66;98083.53;5007276;27;103236;-65
2023/11/15 00:09:06;;;;;;;2.85;1.45;;;;;;;10.28;64.83;98079.06;5017055;27;102753;-66
2023/11/15 00:11:35;;;;;;;2.63;1.35;;;;;;;10.31;64.71;98078.72;5018817;27;102742;-65
2023/11/15 00:14:03;;;;;;;4.32;1.40;;;;;;;10.39;64.58;98091.06;5022000;27;103940;-65
2023/11/15 00:16:33;;;;;;;1.27;1.00;;;;;;;10.35;64.09;98095.91;5021791;27;102972;-65
2023/11/15 00:19:03;;;;;;;0.73;0.70;;;;;;;10.38;64.18;98092.06;5018386;27;102583;-66
2023/11/15 00:21:31;;;;;;;2.00;1.30;;;;;;;10.40;64.15;98098.81;5013783;27;104060;-66
2023/11/15 00:24:01;;;;;;;4.20;1.30;;;;;;;10.44;64.08;98105.41;5019374;27;103344;-66
2023/11/15 00:26:31;;;;;;;2.45;1.40;;;;;;;10.45;64.01;98112.34;4998469;27;103961;-65
2023/11/15 00:29:02;;;;;;;2.60;1.40;;;;;;;10.44;64.36;98115.16;5012692;27;102660;-65
2023/11/15 00:31:31;;;;;;;1.38;1.02;;;;;;;10.48;64.31;98121.75;5019275;27;102826;-65
2023/11/15 00:33:59;;;;;;;3.67;1.17;;;;;;;10.52;64.44;98133.63;5010010;27;103863;-66
2023/11/15 00:36:27;;;;;;;3.03;1.42;;;;;;;10.47;64.52;98137.78;5012914;27;103178;-64
2023/11/15 00:38:56;;;;;;;3.38;1.20;;;;;;;10.48;64.84;98152.69;5016121;27;104053;-65
2023/11/15 00:41:25;;;;;;;2.97;1.42;;;;;;;10.51;64.92;98157.63;5008680;27;104435;-66
2023/11/15 00:43:56;;;;;;;2.08;1.27;;;;;;;10.57;65.27;98164.81;5017404;27;103223;-65
2023/11/15 00:46:24;;;;;;;7.13;1.55;;;;;;;10.44;65.57;98168.94;5015181;27;103164;-65
2023/11/15 00:48:52;;;;;;;2.72;1.45;;;;;;;10.45;66.09;98177.69;5001549;27;102687;-65
2023/11/15 00:51:20;;;;;;;5.95;1.73;;;;;;;10.31;67.63;98195.16;5008348;28;104085;-65
2023/11/15 00:53:48;;;;;;;3.67;2.15;;;;;;;10.23;69.37;98203.16;4999570;28;104574;-66
2023/11/15 00:56:16;;;;;;;2.95;1.20;;;;;;;10.22;70.65;98201.53;4995593;27;103269;-65
2023/11/15 00:58:44;;;;;;;5.20;1.50;;;;;;;10.08;71.45;98209.22;4998355;27;103245;-65
2023/11/15 01:01:14;;;;;;;4.25;1.50;;;;;;;10.05;72.63;98220.16;4997779;27;103761;-65
2023/11/15 01:03:45;;;;;;;3.10;1.40;;;;;;;9.86;72.67;98224.09;5021438;27;103894;-65
2023/11/15 01:06:14;;;;;;;3.55;1.70;;;;;;;9.93;73.14;98216.28;5006687;27;103226;-65
2023/11/15 01:08:42;;;;;;;3.75;1.30;;;;;;;9.77;73.19;98204.81;5005916;27;102670;-65
2023/11/15 01:11:11;;;;;;;4.25;1.35;;;;;;;9.79;72.88;98196.72;5002326;27;103972;-64
2023/11/15 01:13:39;;;;;;;2.50;1.30;;;;;;;9.70;72.90;98195.94;5001478;27;104433;-65
2023/11/15 01:16:07;;;;;;;4.13;1.83;;;;;;;9.67;72.53;98209.50;5002841;27;104241;-65
2023/11/15 01:18:37;;;;;;;3.03;1.70;;;;;;;9.65;72.62;98216.78;5000512;27;102886;-64
2023/11/15 01:21:08;;;;;;;3.08;1.58;;;;;;;9.67;72.03;98225.38;5008231;27;103976;-65
2023/11/15 01:23:36;;;;;;;2.25;1.40;;;;;;;9.53;71.91;98223.47;5011841;27;103990;-65
2023/11/15 01:26:05;;;;;;;3.97;1.58;;;;;;;9.53;70.65;98223.47;5016094;27;103393;-66
2023/11/15 01:28:33;;;;;;;3.38;1.75;;;;;;;9.68;70.67;98228.84;5004058;27;102814;-66
2023/11/15 01:31:02;;;;;;;3.75;1.55;;;;;;;9.67;70.67;98235.97;5002215;28;102677;-66
2023/11/15 01:33:30;;;;;;;4.88;1.55;;;;;;;9.66;70.24;98236.94;5016793;27;103180;-66
2023/11/15 01:35:59;;;;;;;5.13;1.40;;;;;;;9.68;69.92;98253.47;4999627;27;103162;-66
2023/11/15 01:38:30;;;;;;;2.72;1.35;;;;;;;9.70;69.78;98256.75;5015425;27;102687;-66
2023/11/15 01:40:58;;;;;;;2.50;1.23;;;;;;;9.54;69.64;98252.38;5007892;27;102717;-66
2023/11/15 01:43:26;;;;;;;2.35;1.27;;;;;;;9.54;70.05;98251.56;5020497;27;103708;-66
2023/11/15 01:45:57;;;;;;;5.95;1.70;;;;;;;9.53;70.19;98256.00;5006265;27;103204;-66
2023/11/15 01:48:25;;;;;;;7.63;1.90;;;;;;;9.56;70.55;98255.69;5001604;27;103111;-66
2023/11/15 01:50:53;;;;;;;3.22;1.38;;;;;;;9.56;70.17;98260.97;5005448;27;102732;-66
2023/11/15 01:53:23;;;;;;;4.45;1.50;;;;;;;9.62;70.29;98267.38;5003337;27;104165;-66
2023/11/15 01:55:52;;;;;;;3.50;1.50;;;;;;;9.59;70.62;98270.38;4992341;28;104144;-66
2023/11/15 01:58:26;;;;;;;4.53;1.88;;;;;;;9.62;70.13;98259.44;5022372;27;102562;-66
2023/11/15 02:00:54;;;;;;;2.92;1.95;;;;;;;9.60;70.24;98264.06;5000564;27;102706;-66
2023/11/15 02:03:23;;;;;;;3.05;1.50;;;;;;;9.68;70.24;98271.13;5020560;27;103412;-66
2023/11/15 02:05:53;;;;;;;4.05;1.73;;;;;;;9.66;70.08;98281.09;5000578;27;103421;-66
2023/11/15 02:08:23;;;;;;;2.90;1.70;;;;;;;9.65;69.92;98279.44;5003609;27;102825;-66
2023/11/15 02:10:51;;;;;;;4.10;1.90;;;;;;;9.64;70.25;98281.22;5003910;27;103241;-65
2023/11/15 02:13:25;;;;;;;6.47;2.05;;;;;;;9.62;70.07;98280.59;4999067;27;103468;-65
2023/11/15 02:15:56;;;;;;;2.22;1.50;;;;;;;9.64;70.40;98294.44;5001719;27;103202;-68
2023/11/15 02:18:25;;;;;;;2.70;1.25;;;;;;;9.62;71.27;98307.03;5003088;27;102713;-66
2023/11/15 02:20:53;;;;;;;4.63;1.30;;;;;;;9.53;72.83;98300.13;5019693;27;104997;-64
2023/11/15 02:23:23;;;;;;;5.63;1.50;;;;;;;9.56;73.50;98302.44;5015635;27;103239;-65
2023/11/15 02:25:53;;;;;;;2.75;1.65;;;;;;;9.48;73.72;98299.81;5005034;27;103271;-65
2023/11/15 02:28:21;;;;;;;3.03;1.40;;;;;;;9.38;74.24;98306.13;5012045;27;102747;-65
2023/11/15 02:30:49;;;;;;;4.43;2.10;;;;;;;9.41;74.99;98321.66;5003421;28;103857;-65
2023/11/15 02:33:19;;;;;;;3.13;1.83;;;;;;;9.43;74.78;98316.19;5013785;27;104081;-65
2023/11/15 02:35:48;;;;;;;2.97;1.48;;;;;;;9.35;74.79;98316.22;5015065;27;103272;-68
2023/11/15 02:38:16;;;;;;;3.20;1.63;;;;;;;9.39;74.97;98321.00;5010309;27;102780;-65
2023/11/15 02:40:45;;;;;;;5.57;1.95;;;;;;;9.40;75.07;98314.69;5019388;27;104216;-65
2023/11/15 02:43:15;;;;;;;6.22;1.70;;;;;;;9.31;75.49;98315.72;5016673;27;103183;-66
2023/11/15 02:45:43;;;;;;;3.53;1.60;;;;;;;9.29;75.34;98323.81;4999789;28;103221;-65
2023/11/15 02:48:11;;;;;;;5.68;2.47;;;;;;;9.35;75.63;98322.31;5014002;27;102637;-66
2023/11/15 02:50:39;;;;;;;3.90;1.55;;;;;;;9.34;75.28;98318.03;5013085;27;102585;-66
2023/11/15 02:53:08;;;;;;;6.13;1.60;;;;;;;9.31;75.37;98326.28;5001703;27;103160;-66
2023/11/15 02:55:36;;;;;;;6.72;1.63;;;;;;;9.36;74.56;98323.97;5010253;27;104381;-66
2023/11/15 02:58:04;;;;;;;5.80;1.67;;;;;;;9.33;74.83;98334.03;5017927;27;102632;-67
2023/11/15 03:00:33;;;;;;;5.28;1.80;;;;;;;9.33;75.08;98341.97;5018212;27;102770;-66
2023/11/15 03:03:05;;;;;;;6.17;1.80;;;;;;;9.36;74.72;98339.00;4998691;27;104309;-66
2023/11/15 03:05:33;;;;;;;3.70;1.80;;;;;;;9.34;74.50;98339.19;5001869;27;103294;-66
2023/11/15 03:08:01;;;;;;;3.10;1.70;;;;;;;9.20;75.18;98335.41;4999664;27;103010;-67
2023/11/15 03:10:29;;;;;;;4.15;1.83;;;;;;;9.28;74.52;98334.56;5002822;27;104141;-67
2023/11/15 03:12:57;;;;;;;4.07;1.70;;;;;;;9.26;74.14;98350.59;5009768;27;103476;-67
2023/11/15 03:15:25;;;;;;;6.10;1.80;;;;;;;9.23;74.46;98339.53;5017766;27;103328;-67
2023/11/15 03:17:54;;;;;;;6.75;1.85;;;;;;;9.26;74.00;98344.47;4998324;27;102754;-67
2023/11/15 03:20:23;;;;;;;2.63;1.52;;;;;;;9.24;74.00;98342.00;5000207;28;103949;-67
2023/11/15 03:22:52;;;;;;;4.53;1.60;;;;;;;9.06;74.00;98352.75;5004994;27;103779;-68
2023/11/15 03:25:21;;;;;;;2.67;1.55;;;;;;;9.07;74.39;98356.25;5001526;27;104386;-67
2023/11/15 03:27:50;;;;;;;4.88;1.48;;;;;;;9.03;73.61;98361.03;5012814;27;102941;-67
2023/11/15 03:30:19;;;;;;;5.57;1.75;;;;;;;9.06;73.67;98363.31;5020688;27;102667;-67
2023/11/15 03:32:47;;;;;;;4.38;1.58;;;;;;;9.15;73.37;98366.78;5020279;27;103427;-67
2023/11/15 03:35:22;;;;;;;3.78;1.63;;;;;;;9.26;72.98;98371.75;5003953;27;103210;-67
2023/11/15 03:37:50;;;;;;;3.08;1.73;;;;;;;9.23;72.72;98371.25;5010958;27;102868;-67
2023/11/15 03:40:20;;;;;;;4.25;1.58;;;;;;;9.26;72.38;98377.03;5005577;27;102853;-67
2023/11/15 03:42:48;;;;;;;2.53;1.25;;;;;;;9.32;72.12;98375.53;5012034;27;104018;-67
2023/11/15 03:45:17;;;;;;;2.65;1.60;;;;;;;9.32;72.02;98380.81;5002854;27;104005;-67
2023/11/15 03:47:47;;;;;;;3.28;1.35;;;;;;;9.29;71.89;98381.97;5006873;27;102905;-67
2023/11/15 03:50:15;;;;;;;2.78;1.30;;;;;;;9.32;71.95;98387.91;5019905;27;103665;-67
2023/11/15 03:52:47;;;;;;;2.88;1.50;;;;;;;9.25;72.42;98390.41;5015918;27;103283;-67
2023/11/15 03:55:16;;;;;;;2.33;1.23;;;;;;;9.29;72.66;98397.81;5004149;27;103235;-67
2023/11/15 03:57:46;;;;;;;2.72;1.50;;;;;;;9.23;72.82;98406.41;5007345;27;102670;-67
2023/11/15 04:00:16;;;;;;;4.68;1.85;;;;;;;9.19;73.09;98406.94;5016878;27;103865;-67
2023/11/15 04:02:45;;;;;;;3.70;1.60;;;;;;;9.24;73.57;98409.91;5017546;27;103432;-67
2023/11/15 04:05:16;;;;;;;3.80;1.50;;;;;;;9.22;73.27;98427.72;5019858;27;103221;-67
2023/11/15 04:07:45;;;;;;;4.47;1.65;;;;;;;9.23;73.16;98435.47;5014595;28;102675;-67
2023/11/15 04:10:15;;;;;;;9.88;2.28;;;;;;;9.21;74.03;98434.84;5004450;27;104667;-70
2023/11/15 04:12:43;;;;;;;3.25;1.83;;;;;;;9.26;73.47;98439.59;5021410;27;104183;-68
2023/11/15 04:15:13;;;;;;;6.95;1.92;;;;;;;9.26;73.62;98436.97;5007544;28;103418;-72
2023/11/15 04:17:41;;;;;;;4.57;1.73;;;;;;;9.23;73.66;98432.03;4995254;27;102783;-67
2023/11/15 04:20:11;;;;;;;4.90;1.50;;;;;;;9.20;73.13;98435.00;5001236;27;104464;-68
2023/11/15 04:22:39;;;;;;;2.30;1.58;;;;;;;9.15;73.35;98432.03;5006819;27;104344;-67
2023/11/15 04:25:09;;;;;;;5.57;1.73;;;;;;;9.15;73.55;98432.84;5005571;27;103268;-67
2023/11/15 04:27:39;;;;;;;2.85;1.63;;;;;;;9.18;72.98;98439.63;5014047;27;103119;-67
2023/11/15 04:30:09;;;;;;;3.55;1.60;;;;;;;9.13;72.88;98443.59;5021792;27;103502;-68
2023/11/15 04:32:39;;;;;;;5.25;1.77;;;;;;;9.04;73.21;98449.00;5016074;27;103226;-68
2023/11/15 04:35:08;;;;;;;7.25;2.00;;;;;;;9.07;73.36;98456.63;5023514;27;103304;-68
2023/11/15 04:37:36;;;;;;;5.30;1.70;;;;;;;9.09;73.38;98460.75;5013293;27;102636;-67
2023/11/15 04:40:06;;;;;;;2.83;1.40;;;;;;;9.13;73.08;98461.22;5013577;27;104337;-67
2023/11/15 04:42:34;;;;;;;5.13;2.00;;;;;;;9.15;72.96;98469.03;5021948;27;103481;-68
2023/11/15 04:45:04;;;;;;;3.15;1.63;;;;;;;9.13;73.21;98472.66;5001153;27;103566;-68
2023/11/15 04:47:32;;;;;;;4.63;1.92;;;;;;;9.07;73.39;98475.94;5018822;27;102734;-68
2023/11/15 04:50:00;;;;;;;3.35;1.80;;;;;;;9.11;73.37;98469.34;5009601;27;103157;-67
2023/11/15 04:52:28;;;;;;;3.45;1.50;;;;;;;9.12;73.45;98481.56;5015792;27;103375;-67
2023/11/15 04:54:56;;;;;;;4.28;2.03;;;;;;;9.15;73.34;98492.81;5016003;27;103418;-67
2023/11/15 04:57:26;;;;;;;4.47;1.70;;;;;;;9.21;73.26;98490.31;5014044;27;102675;-67
2023/11/15 04:59:55;;;;;;;2.47;1.50;;;;;;;9.22;73.25;98491.13;5017208;27;102692;-68
2023/11/15 05:02:27;;;;;;;3.10;1.48;;;;;;;9.23;73.91;98487.50;5011524;27;104076;-67
2023/11/15 05:04:55;;;;;;;4.38;2.20;;;;;;;9.26;73.84;98503.03;5015947;27;103188;-68
2023/11/15 05:07:24;;;;;;;2.38;1.30;;;;;;;9.31;73.57;98500.72;5021023;27;102571;-68
2023/11/15 05:09:53;;;;;;;4.60;1.60;;;;;;;9.32;73.37;98510.31;5003953;27;104142;-68
2023/11/15 05:12:21;;;;;;;4.63;1.63;;;;;;;9.35;73.58;98502.03;5017002;27;103246;-68
2023/11/15 05:14:51;;;;;;;4.82;1.98;;;;;;;9.24;74.14;98515.59;5021219;27;103222;-67
2023/11/15 05:17:19;;;;;;;4.85;1.25;;;;;;;9.28;74.34;98511.63;5023004;27;102606;-67
2023/11/15 05:19:49;;;;;;;3.40;1.70;;;;;;;9.26;74.75;98513.59;5016798;27;103896;-67
2023/11/15 05:22:17;;;;;;;5.45;1.88;;;;;;;9.26;75.22;98505.66;4999399;27;104279;-67
2023/11/15 05:24:45;;;;;;;8.95;1.85;;;;;;;9.15;76.37;98512.13;5013113;27;103205;-67
2023/11/15 05:27:16;;;;;;;4.43;1.90;;;;;;;9.15;76.94;98506.00;5017040;27;102743;-67
2023/11/15 05:29:51;;;;;;;2.47;1.45;;;;;;;9.21;76.51;98500.91;5018689;27;104048;-66
2023/11/15 05:32:34;;;;;;;3.08;1.60;;;;;;;9.17;77.03;98511.94;5009839;27;103038;-66
2023/11/15 05:35:10;;;;;;;5.78;1.73;;;;;;;9.23;76.94;98516.59;5014599;27;103130;-67
2023/11/15 05:37:38;;;;;;;4.82;1.60;;;;;;;9.22;77.20;98522.84;5019582;27;102540;-67
2023/11/15 05:40:08;;;;;;;5.25;1.65;;;;;;;9.25;77.09;98519.91;5015382;27;104221;-67
2023/11/15 05:42:36;;;;;;;2.65;1.40;;;;;;;9.24;77.43;98534.09;5018573;27;104123;-67
2023/11/15 05:45:05;;;;;;;2.63;1.40;;;;;;;9.19;77.86;98528.47;5002947;27;103164;-67
2023/11/15 05:47:33;;;;;;;4.20;1.65;;;;;;;9.13;78.05;98525.50;5022154;27;102988;-67
2023/11/15 05:50:02;;;;;;;3.33;1.60;;;;;;;9.03;78.33;98535.38;5007609;27;104028;-67
2023/11/15 05:52:33;;;;;;;3.80;1.70;;;;;;;9.11;78.28;98532.75;5018155;27;103013;-67
2023/11/15 05:55:03;;;;;;;5.38;1.60;;;;;;;9.15;77.89;98527.16;5014518;27;103076;-67
2023/11/15 05:57:32;;;;;;;2.75;1.30;;;;;;;9.08;78.31;98538.38;5000694;27;102830;-67
2023/11/15 06:00:14;;;;;;;3.63;1.70;;;;;;;9.00;78.23;98535.72;5002066;28;102762;-66
2023/11/15 06:02:43;;;;;;;4.22;1.70;;;;;;;9.06;78.27;98540.31;5010524;27;103234;-66
2023/11/15 06:05:11;;;;;;;3.83;1.70;;;;;;;9.06;77.84;98539.50;5013170;27;103718;-67
2023/11/15 06:07:40;;;;;;;4.90;1.98;;;;;;;9.04;78.08;98542.31;5014565;27;102744;-66
2023/11/15 06:10:10;;;;;;;5.38;2.20;;;;;;;9.10;77.88;98546.13;5002393;27;102889;-67
2023/11/15 06:12:39;;;;;;;9.05;2.28;;;;;;;9.08;78.09;98543.66;5019689;27;103831;-66
2023/11/15 06:15:09;;;;;;;6.40;2.10;;;;;;;8.96;78.35;98543.13;5017941;27;102945;-66
2023/11/15 06:17:39;;;;;;;3.17;1.58;;;;;;;8.98;77.60;98536.88;5005911;27;102751;-65
2023/11/15 06:20:09;;;;;;;5.55;1.90;;;;;;;9.09;77.08;98545.31;5014803;27;103444;-67
2023/11/15 06:22:38;;;;;;;4.50;1.83;;;;;;;9.05;77.00;98537.84;5015600;27;103055;-67
2023/11/15 06:25:08;;;;;;;5.35;1.80;;;;;;;9.11;76.84;98551.25;5021095;27;103192;-67
2023/11/15 06:27:37;;;;;;;5.18;1.98;;;;;;;9.16;76.36;98565.78;5021552;27;102681;-67
2023/11/15 06:30:08;;;;;;;3.80;1.67;;;;;;;9.21;77.04;98574.03;5001678;27;104058;-67
2023/11/15 06:32:38;;;;;;;4.18;1.52;;;;;;;9.17;77.13;98578.00;5022080;27;103277;-66
2023/11/15 06:35:06;;;;;;;7.28;2.42;;;;;;;9.12;76.82;98581.97;5021630;27;103225;-66
2023/11/15 06:37:34;;;;;;;5.00;1.63;;;;;;;9.07;77.40;98573.69;5014986;27;102618;-66
2023/11/15 06:40:07;;;;;;;6.03;2.03;;;;;;;8.99;77.51;98578.97;5022189;27;102694;-67
2023/11/15 06:42:37;;;;;;;4.28;1.52;;;;;;;9.03;77.16;98593.50;5012126;27;104312;-67
2023/11/15 06:45:06;;;;;;;4.75;1.67;;;;;;;8.99;77.22;98589.53;5018407;27;103310;-66
2023/11/15 06:47:35;;;;;;;7.25;1.70;;;;;;;8.96;77.67;98592.47;5010553;27;102891;-66
2023/11/15 06:50:06;;;;;;;6.97;1.70;;;;;;;8.91;78.03;98592.16;5021514;27;102929;-66
2023/11/15 06:52:37;;;;;;;5.97;2.60;;;;;;;8.95;78.09;98596.13;5022756;27;104093;-66
2023/11/15 06:55:09;;;;;;;6.32;2.10;;;;;;;8.91;77.68;98597.44;5013346;27;103470;-66
2023/11/15 06:57:40;;;;;;;5.53;1.52;;;;;;;8.91;78.27;98600.06;5021386;27;102585;-65
2023/11/15 07:00:12;;;;;;;3.22;1.25;;;;;;;8.90;78.13;98606.34;5015219;27;103034;-65
2023/11/15 07:02:41;;;;;;;3.30;1.75;;;;;;;8.91;77.67;98611.47;5018068;27;103232;-65
2023/11/15 07:05:13;;;;;;;3.88;1.90;;;;;;;8.93;77.61;98619.22;5021901;27;103072;-65
2023/11/15 07:07:41;;;;;;;1.77;1.30;;;;;;;8.98;77.60;98627.50;5012246;27;102750;-66
2023/11/15 07:10:10;;;;;;;6.22;2.10;;;;;;;8.95;77.69;98633.91;5015094;27;104490;-66
2023/11/15 07:12:40;;;;;;;5.47;2.08;;;;;;;9.01;77.23;98639.56;5018410;27;103748;-67
2023/11/15 07:15:12;;;;;;;2.75;1.55;;;;;;;8.96;77.42;98640.88;5021200;27;103346;-66
2023/11/15 07:17:40;;;;;;;3.57;1.90;;;;;;;8.98;77.62;98650.44;4998953;27;103936;-64
2023/11/15 07:20:10;;;;;;;7.90;2.40;;;;;;;8.95;78.13;98649.78;5021329;27;103068;-65
2023/11/15 07:22:38;;;;;;;5.63;2.28;;;;;;;9.03;78.05;98641.06;5020813;27;103252;-65
2023/11/15 07:25:07;;;;;;;3.22;1.95;;;;;;;9.05;78.16;98639.09;5019533;27;103223;-66
2023/11/15 07:27:36;;;;;;;3.72;2.05;;;;;;;8.96;77.99;98651.44;5017669;27;102677;-62
2023/11/15 07:30:07;;;;;;;4.38;1.58;;;;;;;9.02;78.24;98655.25;5014714;27;102731;-62
2023/11/15 07:32:36;;;;;;;6.00;1.75;;;;;;;9.08;78.07;98651.16;5018012;27;104292;-62
2023/11/15 07:35:04;;;;;;;6.07;2.17;;;;;;;9.00;78.35;98656.38;5013690;27;103260;-63
2023/11/15 07:37:34;;;;;;;4.97;1.80;;;;;;;9.09;77.78;98656.28;5011622;27;102943;-63
2023/11/15 07:40:03;;;;;;;5.40;1.77;;;;;;;9.09;78.05;98656.28;5015483;27;102650;-63
2023/11/15 07:42:32;;;;;;;3.28;1.60;;;;;;;9.19;77.23;98665.88;5017648;27;103959;-63
2023/11/15 07:45:01;;;;;;;3.78;1.80;;;;;;;9.39;77.13;98662.00;5013173;27;102948;-63
2023/11/15 07:47:34;;;;;;;3.95;2.08;;;;;;;9.61;76.50;98665.81;5019110;27;102668;-63
2023/11/15 07:50:03;;;;;;;7.45;2.40;;;;;;;9.72;75.88;98677.91;5021653;27;102667;-63
2023/11/15 07:52:31;;;;;;;4.82;1.80;;;;;;;9.78;76.17;98685.16;5027310;27;103225;-63
2023/11/15 07:55:03;;;;;;;4.43;2.20;;;;;;;9.87;75.72;98685.19;5025957;27;103078;-66
2023/11/15 07:57:33;;;;;;;6.50;3.00;;;;;;;9.82;75.48;98684.88;5023719;27;103872;-63
2023/11/15 08:00:01;;;;;;;5.63;2.13;;;;;;;10.13;74.61;98690.34;5013102;27;102779;-68
2023/11/15 08:02:41;;;;;;;5.45;2.17;;;;;;;9.92;75.06;98682.91;5015111;27;103208;-68
2023/11/15 08:05:10;;;;;;;8.23;2.45;;;;;;;9.91;75.36;98687.34;5020766;27;104130;-67
2023/11/15 08:07:37;;;;;;;6.65;2.10;;;;;;;9.89;75.11;98688.50;5017132;27;102732;-63
2023/11/15 08:10:06;;;;;;;5.22;2.00;;;;;;;9.86;75.19;98694.13;5022601;27;103885;-63
2023/11/15 08:12:35;;;;;;;4.07;2.03;;;;;;;9.84;74.78;98691.66;5016965;27;103557;-63
2023/11/15 08:15:05;;;;;;;4.07;2.10;;;;;;;10.21;74.12;98689.50;5007814;27;104472;-63
2023/11/15 08:17:36;;;;;;;5.20;1.80;;;;;;;10.26;73.94;98700.44;5020211;27;102612;-66
2023/11/15 08:20:09;;;;;;;5.95;1.92;;;;;;;10.21;73.78;98692.97;5010692;28;103864;-65
2023/11/15 08:22:38;;;;;;;8.00;2.00;;;;;;;10.18;73.48;98689.81;5024331;27;103325;-64
2023/11/15 08:25:07;;;;;;;5.95;1.85;;;;;;;10.03;74.51;98703.72;5021557;27;103204;-63
2023/11/15 08:27:35;;;;;;;10.68;2.95;;;;;;;10.10;74.31;98695.94;5020051;27;102692;-67
2023/11/15 08:30:05;;;;;;;2.40;1.50;;;;;;;10.19;73.87;98710.00;5028696;27;102652;-63
2023/11/15 08:32:35;;;;;;;5.15;1.85;;;;;;;10.02;74.46;98710.03;5000143;27;103760;-65
2023/11/15 08:35:09;;;;;;;4.13;1.95;;;;;;;10.07;74.11;98718.31;5020974;27;103235;-64
2023/11/15 08:37:38;;;;;;;4.28;1.90;;;;;;;10.52;73.38;98715.31;5021600;27;102575;-66
2023/11/15 08:40:11;;;;;;;5.20;2.00;;;;;;;10.29;73.85;98716.78;5022668;27;102611;-66
2023/11/15 08:42:55;;;;;;;6.22;2.13;;;;;;;10.23;74.13;98716.63;5013373;27;103262;-66
2023/11/15 08:45:26;;;;;;;2.95;1.70;;;;;;;10.19;73.63;98720.59;5018437;27;103250;-63
2023/11/15 08:47:56;;;;;;;7.20;2.55;;;;;;;10.62;73.16;98721.28;5020612;27;102711;-64
2023/11/15 08:50:28;;;;;;;4.88;1.80;;;;;;;10.90;72.59;98721.72;5028986;27;102624;-63
2023/11/15 08:52:57;;;;;;;6.47;1.95;;;;;;;11.17;70.93;98718.81;5022881;27;104012;-67
2023/11/15 08:55:35;;;;;;;3.53;1.75;;;;;;;11.43;70.95;98724.66;5025772;27;103265;-65
2023/11/15 08:58:07;;;;;;;4.07;2.00;;;;;;;11.60;70.03;98732.56;5014504;27;102710;-67
2023/11/15 09:00:37;;;;;;;7.57;2.53;;;;;;;11.54;69.61;98735.88;5029840;27;102948;-66
2023/11/15 09:03:08;;;;;;;4.53;2.00;;;;;;;11.15;71.08;98737.56;5021937;27;103885;-64
2023/11/15 09:05:44;;;;;;;5.05;2.03;;;;;;;11.56;69.67;98728.59;5026267;27;103207;-64
2023/11/15 09:08:14;;;;;;;4.00;1.75;;;;;;;11.41;69.33;98742.59;5026671;27;102993;-67
2023/11/15 09:10:45;;;;;;;5.03;1.73;;;;;;;11.54;69.74;98741.19;5024324;27;102624;-65
2023/11/15 09:13:18;;;;;;;3.72;1.45;;;;;;;11.32;69.89;98740.97;5017703;27;103446;-66
2023/11/15 09:15:47;;;;;;;2.33;1.45;;;;;;;11.26;70.52;98745.13;5014543;27;103683;-64
2023/11/15 09:18:15;;;;;;;3.58;1.92;;;;;;;11.10;70.06;98751.31;5016087;27;102721;-64
2023/11/15 09:20:47;;;;;;;6.85;2.00;;;;;;;11.03;70.98;98749.50;5016847;27;104453;-66
2023/11/15 09:23:17;;;;;;;8.48;1.80;;;;;;;11.08;70.51;98748.03;5023276;27;103276;-64
2023/11/15 09:25:58;;;;;;;5.03;2.08;;;;;;;10.95;70.97;98753.00;5026977;27;103200;-66
2023/11/15 09:28:27;;;;;;;3.80;1.55;;;;;;;11.08;70.32;98742.72;5021895;27;103000;-66
2023/11/15 09:30:56;;;;;;;2.58;1.40;;;;;;;11.49;69.58;98743.53;5015896;27;103037;-67
2023/11/15 09:33:32;;;;;;;5.28;1.80;;;;;;;11.64;69.31;98747.13;5011100;27;103332;-64
2023/11/15 09:36:06;;;;;;;2.80;1.83;;;;;;;11.64;69.09;98751.59;5020509;27;103210;-65
2023/11/15 09:38:36;;;;;;;3.00;1.67;;;;;;;11.80;68.61;98750.69;5023649;27;103464;-66
2023/11/15 09:41:10;;;;;;;3.75;1.60;;;;;;;11.86;67.04;98752.66;5005544;27;104943;-66
2023/11/15 09:43:39;;;;;;;;;;;;;;;11.82;66.57;98754.81;5023501;27;104100;-66
2023/11/15 09:46:12;;;;;;;3.67;1.50;;;;;;;11.97;67.08;98757.56;5021822;27;102998;-65
2023/11/15 09:48:46;;;;;;;3.78;1.45;;;;;;;11.96;67.38;98760.41;5019249;27;102687;-64
2023/11/15 09:51:27;;;;;;;4.18;1.48;;;;;;;11.76;68.09;98766.97;5004751;27;103291;-65
2023/11/15 09:53:57;;;;;;;2.42;1.38;;;;;;;11.68;68.17;98777.59;5027299;27;103281;-64
2023/11/15 09:56:44;;;;;;;2.83;1.17;;;;;;;11.59;67.67;98770.69;5024727;27;103220;-66
2023/11/15 09:59:17;;;;;;;5.72;1.65;;;;;;;11.72;68.14;98770.13;5008109;27;102657;-65
2023/11/15 10:01:48;;;;;;;2.40;1.40;;;;;;;11.66;68.91;98784.09;5026606;27;102562;-66
2023/11/15 10:04:24;;;;;;;2.47;1.40;;;;;;;11.73;68.56;98783.22;5025266;27;103475;-64
2023/11/15 10:06:55;;;;;;;2.45;1.35;;;;;;;12.05;68.74;98775.28;5029264;27;104500;-66
2023/11/15 10:09:36;;;;;;;3.95;1.30;;;;;;;12.09;68.76;98777.41;5009879;27;103817;-65
2023/11/15 10:12:06;;;;;;;2.30;1.23;;;;;;;12.31;68.00;98774.94;5030376;27;103079;-65
2023/11/15 10:14:51;;;;;;;2.83;1.35;;;;;;;12.23;68.17;98782.97;5022890;27;103255;-65
2023/11/15 10:17:20;;;;;;;3.58;1.60;;;;;;;11.95;68.21;98780.81;5019465;27;103218;-66
2023/11/15 10:19:49;;;;;;;2.92;1.40;;;;;;;12.06;68.07;98779.59;5023219;27;102946;-65
2023/11/15 10:22:27;;;;;;;2.20;1.20;;;;;;;12.46;67.22;98787.44;5000842;27;105506;-67
2023/11/15 10:25:05;;;;;;;1.67;1.10;;;;;;;12.51;65.60;98785.06;5019863;27;104140;-67
2023/11/15 10:27:39;;;;;;;1.88;1.05;;;;;;;12.72;65.81;98776.44;5019039;27;103263;-64
2023/11/15 10:30:12;;;;;;;2.85;1.10;;;;;;;12.40;65.48;98783.69;5015786;27;102959;-66
2023/11/15 10:32:41;;;;;;;;;;;;;;;12.53;65.50;98788.41;5023994;27;103321;-67
2023/11/15 10:35:10;;;;;;;3.65;1.50;;;;;;;12.28;65.75;98791.22;5011584;27;103064;-64
2023/11/15 10:37:53;;;;;;;4.85;1.48;;;;;;;12.16;66.21;98797.97;5021447;27;103331;-65
2023/11/15 10:40:25;;;;;;;1.58;1.20;;;;;;;12.16;66.26;98803.28;5017379;27;102622;-64
2023/11/15 10:42:55;;;;;;;3.00;1.30;;;;;;;12.16;66.55;98803.28;5027759;27;103042;-64
2023/11/15 10:45:24;;;;;;;3.63;1.30;;;;;;;11.97;67.17;98800.03;5015819;27;103567;-64
2023/11/15 10:47:58;;;;;;;2.00;1.30;;;;;;;12.01;67.06;98801.34;5023001;27;103171;-65
2023/11/15 10:50:27;;;;;;;;;;;;;;;11.89;67.45;98803.53;5023834;27;102707;-64
2023/11/15 10:52:58;;;;;;;3.30;1.60;;;;;;;12.01;66.51;98796.03;5024691;27;102643;-65
2023/11/15 10:55:28;;;;;;;2.60;1.52;;;;;;;12.06;66.79;98799.00;5018418;27;103385;-63
2023/11/15 10:58:02;;;;;;;2.42;1.30;;;;;;;12.18;66.28;98801.25;5007647;28;103412;-65
2023/11/15 11:00:34;;;;;;;2.15;1.35;;;;;;;12.31;66.95;98793.53;5019513;27;102638;-64
2023/11/15 11:03:05;;;;;;;3.92;1.55;;;;;;;12.07;66.89;98795.34;5024014;27;102906;-64
2023/11/15 11:05:45;;;;;;;3.97;1.67;;;;;;;12.16;67.46;98782.03;5013738;27;104640;-64
2023/11/15 11:08:27;;;;;;;2.13;1.05;;;;;;;12.15;66.93;98783.84;5011754;27;103018;-64
2023/11/15 11:11:08;;;;;;;3.80;1.70;;;;;;;12.37;66.64;98779.53;5023312;27;102658;-66
2023/11/15 11:13:36;;;;;;;3.83;1.80;;;;;;;12.16;66.25;98782.03;5019247;27;102836;-66
2023/11/15 11:16:34;;;;;;;2.78;1.27;;;;;;;12.50;65.17;98767.47;5018077;27;104103;-66
2023/11/15 11:19:11;;;;;;;3.13;1.50;;;;;;;12.77;64.23;98764.25;5019684;27;103236;-67
2023/11/15 11:22:07;;;;;;;4.50;1.60;;;;;;;13.18;64.29;98765.69;5017883;27;103004;-66
2023/11/15 11:24:39;;;;;;;5.68;1.90;;;;;;;12.77;64.03;98768.75;5019854;27;102771;-67
2023/11/15 11:27:30;;;;;;;3.15;1.65;;;;;;;13.36;61.66;98762.69;5019382;27;104544;-67
2023/11/15 11:30:20;;;;;;;2.67;1.50;;;;;;;13.34;60.82;98759.34;5020745;27;103288;-66
2023/11/15 11:32:50;;;;;;;3.47;1.60;;;;;;;13.66;60.40;98762.63;5025697;27;102967;-66
2023/11/15 11:35:30;;;;;;;3.03;1.60;;;;;;;13.56;60.77;98746.97;5022558;27;102940;-67
2023/11/15 11:38:00;;;;;;;5.03;1.80;;;;;;;13.62;59.98;98741.91;5016679;27;103069;-64
2023/11/15 11:40:32;;;;;;;5.18;1.80;;;;;;;13.54;59.89;98743.66;5015792;27;103192;-64
2023/11/15 11:43:22;;;;;;;3.83;2.08;;;;;;;13.88;59.46;98741.38;5021382;27;102644;-65
2023/11/15 11:45:53;;;;;;;3.17;1.33;;;;;;;13.98;58.08;98728.59;5019579;27;103848;-64
2023/11/15 11:48:26;;;;;;;4.53;1.58;;;;;;;14.10;58.18;98729.72;5020321;27;103060;-64